Time;durP1;ratioP1;P1;durP2;ratioP2;P2;SDS_P1;SDS_P2;PMS_P1;PMS_P2;Temp;Humidity;BMP_temperature;BMP_pressure;BME280_temperature;BME280_humidity;BME280_pressure;Samples;Min_cycle;Max_cycle;Signal;HPM_P1;HPM_P2
2022/08/25 00:00:47;;;;;;;8.02;4.13;;;28.20;99.90;;;;;;4159203;28;20161;-71
2022/08/25 00:02:56;;;;;;;7.22;4.38;;;28.20;99.90;;;;;;4155592;28;20049;-71
2022/08/25 00:05:00;;;;;;;6.47;3.75;;;28.20;99.90;;;;;;4157994;28;20060;-71
2022/08/25 00:07:06;;;;;;;7.20;4.03;;;28.20;99.90;;;;;;4159564;28;20484;-71
2022/08/25 00:09:14;;;;;;;6.43;4.13;;;28.10;99.90;;;;;;4159605;28;20083;-70
2022/08/25 00:11:21;;;;;;;6.70;4.38;;;28.20;99.90;;;;;;4160348;28;20053;-73
2022/08/25 00:13:26;;;;;;;5.97;3.78;;;28.20;99.90;;;;;;4162625;28;20119;-71
2022/08/25 00:15:37;;;;;;;6.07;4.35;;;28.20;99.90;;;;;;4161706;28;20045;-72
2022/08/25 00:17:42;;;;;;;6.22;4.45;;;28.20;99.90;;;;;;4177200;28;20041;-72
2022/08/25 00:19:49;;;;;;;6.00;4.20;;;28.20;99.90;;;;;;4181229;28;20041;-71
2022/08/25 00:21:56;;;;;;;6.45;4.25;;;28.20;99.90;;;;;;4180860;28;20049;-72
2022/08/25 00:24:01;;;;;;;5.00;4.07;;;28.10;99.90;;;;;;4181083;28;20041;-72
2022/08/25 00:26:08;;;;;;;6.55;4.05;;;27.90;99.90;;;;;;4181526;28;20044;-72
2022/08/25 00:28:18;;;;;;;7.50;4.15;;;27.70;99.90;;;;;;4181425;28;20045;-72
2022/08/25 00:30:23;;;;;;;6.65;4.07;;;27.80;99.90;;;;;;4164904;28;20046;-73
2022/08/25 00:32:29;;;;;;;9.98;4.18;;;27.90;99.90;;;;;;4164255;28;20053;-73
2022/08/25 00:34:36;;;;;;;6.57;4.22;;;28.00;99.90;;;;;;4164458;28;20140;-73
2022/08/25 00:36:41;;;;;;;8.00;4.40;;;28.00;99.90;;;;;;4163768;28;20155;-73
2022/08/25 00:38:47;;;;;;;6.15;4.88;;;28.10;99.90;;;;;;4163504;28;20037;-72
2022/08/25 00:43:11;;;;;;;4.78;3.88;;;27.90;99.90;;;;;;4159198;28;20050;-72
2022/08/25 00:45:17;;;;;;;5.72;3.70;;;27.90;99.90;;;;;;4175565;28;20778;-72
2022/08/25 00:47:29;;;;;;;5.50;3.45;;;27.90;99.90;;;;;;4178583;28;20412;-72
2022/08/25 00:49:49;;;;;;;6.30;3.80;;;28.00;99.90;;;;;;4177709;28;20045;-72
2022/08/25 00:52:00;;;;;;;6.05;3.70;;;28.00;99.90;;;;;;4179170;28;20049;-71
2022/08/25 00:54:08;;;;;;;5.18;3.67;;;28.00;99.90;;;;;;4178141;28;20734;-72
2022/08/25 00:56:12;;;;;;;5.47;3.67;;;27.90;99.90;;;;;;4177192;28;20076;-71
2022/08/25 00:58:24;;;;;;;4.13;3.40;;;28.00;99.90;;;;;;4166535;28;20120;-72
2022/08/25 01:00:33;;;;;;;8.82;3.42;;;28.00;99.90;;;;;;4149251;28;20064;-71
2022/08/25 01:02:39;;;;;;;5.60;3.42;;;28.00;99.90;;;;;;4160907;28;20040;-72
2022/08/25 01:04:46;;;;;;;5.30;3.38;;;28.10;99.90;;;;;;4164681;28;20146;-73
2022/08/25 01:06:52;;;;;;;6.18;3.80;;;28.10;99.90;;;;;;4164607;28;20080;-72
2022/08/25 01:08:57;;;;;;;5.18;3.38;;;28.10;99.90;;;;;;4164465;28;20049;-72
2022/08/25 01:11:04;;;;;;;8.27;3.90;;;28.10;99.90;;;;;;4164150;28;20062;-71
2022/08/25 01:13:19;;;;;;;5.13;3.38;;;28.10;99.90;;;;;;4175436;28;20072;-71
2022/08/25 01:15:23;;;;;;;6.07;3.28;;;28.10;99.90;;;;;;4179409;28;20049;-71
2022/08/25 01:17:53;;;;;;;5.40;3.60;;;28.20;99.90;;;;;;4179558;28;20049;-72
2022/08/25 01:19:57;;;;;;;5.35;3.13;;;28.10;99.90;;;;;;4177320;28;20053;-72
2022/08/25 01:22:02;;;;;;;6.07;4.03;;;28.20;99.90;;;;;;4162422;28;20046;-72
2022/08/25 01:24:09;;;;;;;6.00;4.05;;;28.10;99.90;;;;;;4162535;28;20033;-72
2022/08/25 01:26:25;;;;;;;6.35;3.75;;;28.00;99.90;;;;;;4162984;28;20038;-70
2022/08/25 01:28:33;;;;;;;7.22;3.85;;;28.00;99.90;;;;;;4156615;28;20516;-71
2022/08/25 01:30:38;;;;;;;6.00;4.20;;;28.10;99.90;;;;;;4161853;28;20037;-70
2022/08/25 01:32:42;;;;;;;7.90;4.03;;;28.20;99.90;;;;;;4162791;28;20496;-72
2022/08/25 01:34:47;;;;;;;8.23;4.07;;;28.30;99.90;;;;;;4163236;28;20054;-72
2022/08/25 01:36:56;;;;;;;9.98;4.88;;;28.30;99.90;;;;;;4161053;28;20064;-71
2022/08/25 01:39:01;;;;;;;5.55;4.13;;;28.30;99.90;;;;;;4163006;28;20049;-71
2022/08/25 01:41:05;;;;;;;6.80;4.30;;;28.30;99.90;;;;;;4161296;28;20634;-71
2022/08/25 01:43:21;;;;;;;8.50;4.60;;;28.30;99.90;;;;;;4162841;28;20104;-71
2022/08/25 01:45:28;;;;;;;6.65;4.30;;;28.40;99.90;;;;;;4143770;28;20076;-72
2022/08/25 01:47:33;;;;;;;7.32;4.72;;;28.50;99.90;;;;;;4162471;28;20088;-71
2022/08/25 01:49:39;;;;;;;6.10;3.75;;;28.40;99.90;;;;;;4163096;28;20041;-71
2022/08/25 01:51:59;;;;;;;7.05;4.85;;;28.50;99.90;;;;;;4162176;28;20045;-71
2022/08/25 01:54:04;;;;;;;6.35;4.57;;;28.60;99.90;;;;;;4161201;28;20605;-73
2022/08/25 01:56:11;;;;;;;7.03;4.95;;;28.60;99.90;;;;;;4144282;28;20420;-72
2022/08/25 01:58:25;;;;;;;18.15;7.85;;;28.70;99.90;;;;;;4159235;28;20049;-72
2022/08/25 02:00:32;;;;;;;7.72;5.35;;;28.80;99.90;;;;;;4158702;28;20050;-71
2022/08/25 02:02:41;;;;;;;8.80;5.10;;;28.70;99.90;;;;;;4161373;28;20064;-72
2022/08/25 02:04:48;;;;;;;10.45;5.13;;;28.70;99.90;;;;;;4174568;28;20468;-72
2022/08/25 02:06:52;;;;;;;7.38;4.93;;;29.00;99.90;;;;;;4156317;28;20072;-72
2022/08/25 02:09:04;;;;;;;8.38;4.95;;;29.10;99.90;;;;;;4162424;28;20038;-72
2022/08/25 02:11:23;;;;;;;11.45;5.28;;;29.30;99.90;;;;;;4161844;28;20600;-72
2022/08/25 02:13:27;;;;;;;6.18;4.60;;;29.20;99.90;;;;;;4162810;28;20072;-72
2022/08/25 02:15:40;;;;;;;6.85;4.90;;;29.30;99.90;;;;;;4162248;28;20057;-72
2022/08/25 02:17:49;;;;;;;8.13;5.40;;;29.40;99.90;;;;;;4161881;28;20060;-72
2022/08/25 02:19:55;;;;;;;7.32;5.22;;;29.30;99.90;;;;;;4162776;28;20053;-71
2022/08/25 02:22:02;;;;;;;7.05;5.00;;;29.40;99.90;;;;;;4161365;28;20053;-73
2022/08/25 02:24:08;;;;;;;7.13;5.03;;;29.30;99.90;;;;;;4126955;28;20205;-72
2022/08/25 02:26:17;;;;;;;6.20;4.75;;;29.30;99.90;;;;;;4161563;28;20049;-72
2022/08/25 02:28:24;;;;;;;9.23;5.45;;;29.30;99.90;;;;;;4162441;28;20076;-72
2022/08/25 02:30:30;;;;;;;6.65;4.68;;;29.30;99.90;;;;;;4162138;28;20041;-72
2022/08/25 02:32:34;;;;;;;6.05;4.68;;;29.20;99.90;;;;;;4161535;28;20041;-73
2022/08/25 02:34:41;;;;;;;12.57;5.05;;;29.30;99.90;;;;;;4162004;28;20069;-73
2022/08/25 02:36:47;;;;;;;6.30;4.90;;;29.20;99.90;;;;;;4160046;28;20058;-73
2022/08/25 02:38:52;;;;;;;9.13;5.32;;;29.20;99.90;;;;;;4162116;28;20049;-73
2022/08/25 02:40:58;;;;;;;6.85;4.05;;;29.10;99.90;;;;;;4161906;28;20548;-73
2022/08/25 02:43:05;;;;;;;5.30;3.33;;;29.10;99.90;;;;;;4161803;28;20060;-73
2022/08/25 02:45:10;;;;;;;3.30;1.88;;;29.00;99.90;;;;;;4160296;28;20436;-73
2022/08/25 02:47:17;;;;;;;4.30;1.70;;;28.80;99.90;;;;;;4160891;28;20041;-73
2022/08/25 02:49:30;;;;;;;2.63;1.67;;;28.70;99.90;;;;;;4143165;28;20050;-73
2022/08/25 02:51:35;;;;;;;3.08;1.52;;;28.60;99.90;;;;;;4160774;28;20547;-73
2022/08/25 02:53:44;;;;;;;5.95;2.97;;;28.60;99.90;;;;;;4161616;28;20577;-73
2022/08/25 02:55:51;;;;;;;2.30;1.50;;;28.50;99.90;;;;;;4161553;28;20057;-73
2022/08/25 02:57:55;;;;;;;3.70;1.80;;;28.40;99.90;;;;;;4160132;28;20046;-73
2022/08/25 03:00:02;;;;;;;4.70;2.03;;;28.30;99.90;;;;;;4162019;28;20683;-73
2022/08/25 03:02:08;;;;;;;3.53;1.90;;;28.40;99.90;;;;;;4144639;28;20509;-73
2022/08/25 03:04:13;;;;;;;2.63;1.55;;;28.50;99.90;;;;;;4144289;28;20789;-73
2022/08/25 03:06:21;;;;;;;2.30;1.52;;;28.60;99.90;;;;;;4144272;28;20149;-73
2022/08/25 03:08:28;;;;;;;11.32;2.63;;;28.60;99.90;;;;;;4145072;28;20441;-73
2022/08/25 03:10:33;;;;;;;4.63;1.67;;;28.70;99.90;;;;;;4144103;28;20080;-71
2022/08/25 03:12:44;;;;;;;4.20;1.40;;;28.90;99.90;;;;;;4144635;28;20054;-72
2022/08/25 03:14:50;;;;;;;3.78;1.83;;;29.00;99.90;;;;;;4145417;28;20060;-72
2022/08/25 03:16:56;;;;;;;2.90;1.40;;;29.10;99.90;;;;;;4144413;28;20081;-73
2022/08/25 03:19:03;;;;;;;8.52;1.85;;;29.30;99.90;;;;;;4145476;28;20038;-72
2022/08/25 03:21:08;;;;;;;3.72;1.42;;;29.30;99.90;;;;;;4143259;28;20068;-72
2022/08/25 03:23:13;;;;;;;3.08;1.40;;;29.40;99.90;;;;;;4143777;28;20050;-74
2022/08/25 03:27:34;;;;;;;4.47;1.90;;;29.60;99.90;;;;;;4160171;28;20048;-74
2022/08/25 03:29:41;;;;;;;3.88;1.85;;;29.70;99.90;;;;;;4161248;28;20108;-73
2022/08/25 03:31:48;;;;;;;6.65;2.05;;;29.80;99.90;;;;;;4161169;28;20125;-73
2022/08/25 03:33:55;;;;;;;6.82;1.80;;;29.80;99.90;;;;;;4125867;28;20050;-73
2022/08/25 03:36:00;;;;;;;3.03;2.00;;;29.90;99.90;;;;;;4161324;28;20128;-74
2022/08/25 03:38:04;;;;;;;10.38;5.63;;;30.00;99.90;;;;;;4161241;28;20137;-73
2022/08/25 03:40:10;;;;;;;5.65;3.20;;;30.00;99.90;;;;;;4161203;28;20057;-72
2022/08/25 03:42:18;;;;;;;4.45;2.90;;;30.10;99.90;;;;;;4161618;28;20049;-72
2022/08/25 03:44:25;;;;;;;5.07;2.85;;;30.20;99.90;;;;;;4159937;28;20619;-73
2022/08/25 03:46:36;;;;;;;5.05;2.80;;;30.20;99.90;;;;;;4162901;28;20072;-73
2022/08/25 03:48:40;;;;;;;3.88;3.10;;;30.30;99.90;;;;;;4164796;28;20038;-71
2022/08/25 03:50:46;;;;;;;7.43;3.55;;;30.30;99.90;;;;;;4164371;28;20099;-71
2022/08/25 03:52:55;;;;;;;5.47;3.72;;;30.30;99.90;;;;;;4164776;28;20049;-72
2022/08/25 03:55:00;;;;;;;7.22;4.40;;;30.30;99.90;;;;;;4164610;28;20041;-71
2022/08/25 03:57:05;;;;;;;6.95;4.30;;;30.30;99.90;;;;;;4164579;28;20044;-72
2022/08/25 03:59:11;;;;;;;6.57;4.72;;;30.30;99.90;;;;;;4164646;28;20054;-71
2022/08/25 04:01:16;;;;;;;5.75;4.18;;;30.30;99.90;;;;;;4164029;28;20049;-71
2022/08/25 04:03:22;;;;;;;5.43;4.43;;;30.30;99.90;;;;;;4164232;28;20496;-72
2022/08/25 04:05:29;;;;;;;5.57;4.78;;;30.30;99.90;;;;;;4164280;28;20617;-70
2022/08/25 04:07:35;;;;;;;6.43;5.00;;;30.40;99.90;;;;;;4164611;28;20042;-72
2022/08/25 04:09:41;;;;;;;8.23;5.07;;;30.40;99.90;;;;;;4164151;28;20377;-72
2022/08/25 04:11:48;;;;;;;5.90;4.63;;;30.40;99.90;;;;;;4129278;28;20818;-72
2022/08/25 04:13:56;;;;;;;7.32;4.47;;;30.50;99.90;;;;;;4164289;28;20148;-72
2022/08/25 04:16:01;;;;;;;6.40;4.88;;;30.60;99.90;;;;;;4164461;28;20049;-73
2022/08/25 04:18:10;;;;;;;7.93;4.28;;;30.60;99.90;;;;;;4163600;28;20063;-73
2022/08/25 04:20:14;;;;;;;9.68;5.28;;;30.70;99.90;;;;;;4162473;28;20136;-72
2022/08/25 04:22:31;;;;;;;6.30;4.95;;;30.80;99.90;;;;;;4163734;28;20053;-72
2022/08/25 04:24:39;;;;;;;9.50;4.85;;;30.80;99.90;;;;;;4129011;28;20642;-73
2022/08/25 04:26:46;;;;;;;8.70;4.93;;;30.90;99.90;;;;;;4164221;28;20049;-72
2022/08/25 04:28:53;;;;;;;8.15;5.68;;;30.90;99.90;;;;;;4163813;28;20041;-73
2022/08/25 04:31:00;;;;;;;8.10;5.93;;;30.80;99.90;;;;;;4163891;28;20052;-73
2022/08/25 04:33:04;;;;;;;7.65;5.38;;;30.90;99.90;;;;;;4164143;28;20180;-72
2022/08/25 04:35:11;;;;;;;8.25;5.40;;;31.00;99.90;;;;;;4163806;28;20503;-73
2022/08/25 04:37:17;;;;;;;9.05;5.55;;;31.10;99.90;;;;;;4163957;28;20064;-73
2022/08/25 04:39:22;;;;;;;7.70;5.40;;;31.20;99.90;;;;;;4163671;28;20485;-72
2022/08/25 04:41:27;;;;;;;7.65;5.80;;;31.30;99.90;;;;;;4163958;28;20049;-73
2022/08/25 04:43:32;;;;;;;7.55;5.57;;;31.40;99.90;;;;;;4163942;28;20041;-73
2022/08/25 04:45:38;;;;;;;8.73;5.70;;;31.60;99.90;;;;;;4163720;28;20751;-73
2022/08/25 04:47:46;;;;;;;7.43;5.68;;;31.60;99.90;;;;;;4163802;28;20049;-72
2022/08/25 04:49:57;;;;;;;7.68;5.55;;;31.60;99.90;;;;;;4163721;28;20049;-72
2022/08/25 04:52:02;;;;;;;7.85;5.50;;;31.80;99.90;;;;;;4163667;28;20041;-72
2022/08/25 04:54:20;;;;;;;7.40;5.63;;;31.70;99.90;;;;;;4163729;28;20496;-73
2022/08/25 04:56:26;;;;;;;6.22;4.95;;;31.80;99.90;;;;;;4163568;28;20057;-72
2022/08/25 04:58:31;;;;;;;6.65;5.30;;;32.00;99.90;;;;;;4145981;28;20100;-73
2022/08/25 05:00:37;;;;;;;8.82;5.07;;;32.10;99.90;;;;;;4163295;28;20053;-73
2022/08/25 05:02:44;;;;;;;8.70;5.43;;;32.20;99.90;;;;;;4163610;28;20061;-74
2022/08/25 05:04:49;;;;;;;8.30;5.50;;;32.30;99.90;;;;;;4178379;28;20061;-73
2022/08/25 05:07:05;;;;;;;5.95;5.13;;;32.30;99.90;;;;;;4163465;28;20480;-71
2022/08/25 05:09:11;;;;;;;6.13;4.85;;;32.40;99.90;;;;;;4163512;28;20526;-73
2022/08/25 05:11:22;;;;;;;7.70;5.05;;;32.50;99.90;;;;;;4163204;28;20656;-72
2022/08/25 05:13:34;;;;;;;6.65;5.20;;;32.30;99.30;;;;;;4162021;28;20506;-72
2022/08/25 05:17:56;;;;;;;7.00;5.13;;;32.00;99.90;;;;;;4162695;28;20041;-71
2022/08/25 05:20:02;;;;;;;8.07;5.00;;;31.80;99.90;;;;;;4178078;28;20392;-71
2022/08/25 05:22:10;;;;;;;6.68;5.35;;;31.90;99.90;;;;;;4128726;28;20062;-71
2022/08/25 05:24:14;;;;;;;7.85;5.38;;;32.00;99.90;;;;;;4161749;28;20047;-71
2022/08/25 05:26:21;;;;;;;7.22;5.40;;;32.20;99.90;;;;;;4162873;28;20042;-73
2022/08/25 05:28:28;;;;;;;9.95;4.97;;;32.10;99.90;;;;;;4163259;28;20447;-72
2022/08/25 05:30:32;;;;;;;7.32;5.13;;;32.00;99.90;;;;;;4162885;28;20034;-72
2022/08/25 05:32:39;;;;;;;8.15;4.63;;;32.10;99.90;;;;;;4163255;28;20049;-72
2022/08/25 05:34:46;;;;;;;7.60;5.18;;;32.10;99.90;;;;;;4162903;28;20073;-72
2022/08/25 05:36:51;;;;;;;6.63;4.85;;;31.80;99.90;;;;;;4162855;28;20049;-73
2022/08/25 05:38:58;;;;;;;9.98;5.10;;;31.80;99.90;;;;;;4162968;28;20053;-74
2022/08/25 05:41:09;;;;;;;5.60;5.00;;;31.80;99.90;;;;;;4161297;28;20144;-73
2022/08/25 05:43:14;;;;;;;6.90;5.20;;;31.50;99.90;;;;;;4162937;28;20065;-73
2022/08/25 05:45:21;;;;;;;6.15;5.05;;;31.40;99.90;;;;;;4161556;28;20408;-74
2022/08/25 05:47:28;;;;;;;7.47;5.55;;;31.30;99.90;;;;;;4160644;28;20492;-72
2022/08/25 05:49:32;;;;;;;7.55;5.55;;;31.10;99.90;;;;;;4162528;28;20429;-73
2022/08/25 05:51:38;;;;;;;9.85;5.68;;;30.90;99.90;;;;;;4162724;28;20132;-72
2022/08/25 05:53:48;;;;;;;6.90;5.45;;;31.00;99.90;;;;;;4143973;28;20088;-71
2022/08/25 05:55:53;;;;;;;7.93;4.80;;;30.90;99.90;;;;;;4162753;28;20088;-72
2022/08/25 05:57:59;;;;;;;6.80;5.30;;;30.80;99.90;;;;;;4163044;28;20849;-72
2022/08/25 06:00:07;;;;;;;8.07;5.50;;;30.90;99.90;;;;;;4162562;28;20745;-71
2022/08/25 06:04:31;;;;;;;6.90;4.72;;;31.20;99.90;;;;;;4144775;28;20129;-71
2022/08/25 06:06:43;;;;;;;5.23;4.00;;;31.40;99.90;;;;;;4146232;28;20069;-71
2022/08/25 06:08:47;;;;;;;6.82;4.53;;;31.30;99.90;;;;;;4145588;28;20046;-72
2022/08/25 06:10:54;;;;;;;5.53;4.10;;;31.50;99.90;;;;;;4145843;28;20053;-71
2022/08/25 06:12:59;;;;;;;7.38;3.75;;;31.60;99.90;;;;;;4146273;28;20161;-72
2022/08/25 06:15:04;;;;;;;5.10;3.65;;;31.70;99.90;;;;;;4146126;28;20046;-71
2022/08/25 06:17:11;;;;;;;6.55;3.85;;;31.80;99.80;;;;;;4145955;28;20099;-72
2022/08/25 06:19:17;;;;;;;7.53;3.47;;;31.90;99.90;;;;;;4111679;28;20565;-72
2022/08/25 06:21:22;;;;;;;4.32;3.17;;;31.80;99.40;;;;;;4151250;28;20061;-72
2022/08/25 06:23:30;;;;;;;4.07;3.38;;;31.70;98.60;;;;;;4162222;28;20073;-73
2022/08/25 06:25:36;;;;;;;4.78;3.08;;;31.90;98.90;;;;;;4162399;28;20500;-72
2022/08/25 06:27:44;;;;;;;4.13;3.25;;;32.10;98.80;;;;;;4159698;28;20084;-73
2022/08/25 06:29:50;;;;;;;5.60;3.17;;;31.80;98.50;;;;;;4161360;28;20354;-72
2022/08/25 06:32:02;;;;;;;3.95;3.05;;;31.70;98.40;;;;;;4142710;28;20108;-72
2022/08/25 06:34:07;;;;;;;5.03;2.92;;;31.40;99.00;;;;;;4162063;28;20052;-73
2022/08/25 06:36:14;;;;;;;6.40;3.00;;;31.60;98.80;;;;;;4161982;28;20053;-73
2022/08/25 06:38:20;;;;;;;3.60;2.35;;;31.70;99.10;;;;;;4144889;28;20050;-73
2022/08/25 06:40:25;;;;;;;6.50;2.95;;;31.90;98.40;;;;;;4145444;28;20112;-72
2022/08/25 06:42:32;;;;;;;3.50;2.85;;;31.70;98.90;;;;;;4144391;28;20092;-72
2022/08/25 06:44:47;;;;;;;4.38;2.97;;;31.60;98.70;;;;;;4151916;28;20073;-72
2022/08/25 06:46:51;;;;;;;5.07;3.00;;;31.70;98.00;;;;;;4162015;28;20041;-73
2022/08/25 06:48:56;;;;;;;5.07;2.95;;;31.70;98.00;;;;;;4161815;28;20050;-72
2022/08/25 06:51:06;;;;;;;6.13;2.92;;;31.90;97.90;;;;;;4162007;28;20073;-72
2022/08/25 06:53:12;;;;;;;8.10;3.25;;;32.00;97.40;;;;;;4160474;28;20061;-72
2022/08/25 06:55:19;;;;;;;4.72;2.95;;;32.10;97.30;;;;;;4161824;28;20041;-72
2022/08/25 06:57:26;;;;;;;4.60;2.60;;;32.10;97.10;;;;;;4160700;28;20071;-72
2022/08/25 06:59:31;;;;;;;3.50;2.55;;;31.70;97.20;;;;;;4160380;28;20611;-72
2022/08/25 07:01:37;;;;;;;3.78;2.45;;;31.60;97.80;;;;;;4160387;28;20053;-72
2022/08/25 07:03:43;;;;;;;3.80;2.63;;;31.40;97.40;;;;;;4161855;28;20124;-72
2022/08/25 07:05:55;;;;;;;2.90;2.45;;;31.40;97.60;;;;;;4161687;28;20136;-73
2022/08/25 07:08:00;;;;;;;5.88;2.88;;;31.30;97.00;;;;;;4161788;28;20053;-72
2022/08/25 07:10:07;;;;;;;3.35;2.70;;;31.20;97.80;;;;;;4126346;28;20503;-71
2022/08/25 07:12:11;;;;;;;2.72;2.30;;;31.30;98.60;;;;;;4161646;28;20057;-72
2022/08/25 07:14:17;;;;;;;4.25;2.78;;;31.30;97.50;;;;;;4160697;28;20053;-75
2022/08/25 07:16:24;;;;;;;3.95;2.97;;;31.10;98.20;;;;;;4161482;28;20046;-73
2022/08/25 07:18:33;;;;;;;4.20;3.10;;;31.10;98.20;;;;;;4160490;28;20512;-72
2022/08/25 07:20:40;;;;;;;3.25;2.40;;;31.10;98.60;;;;;;4159252;28;20505;-72
2022/08/25 07:22:46;;;;;;;4.85;2.58;;;31.10;98.60;;;;;;4145003;28;20046;-72
2022/08/25 07:24:51;;;;;;;3.25;2.60;;;31.30;98.70;;;;;;4144835;28;20045;-73
2022/08/25 07:27:00;;;;;;;4.90;2.40;;;31.20;98.60;;;;;;4145073;28;20132;-72
2022/08/25 07:29:12;;;;;;;3.25;2.28;;;31.00;98.50;;;;;;4145168;28;20046;-73
2022/08/25 07:31:17;;;;;;;2.83;2.30;;;31.10;98.30;;;;;;4154741;28;20052;-73
2022/08/25 07:33:23;;;;;;;2.95;2.33;;;31.30;98.00;;;;;;4161214;28;20076;-72
2022/08/25 07:35:31;;;;;;;3.50;2.33;;;31.40;97.60;;;;;;4161298;28;20474;-71
2022/08/25 07:37:41;;;;;;;3.33;2.17;;;31.40;98.10;;;;;;4161216;28;20056;-73
2022/08/25 07:39:54;;;;;;;2.90;2.30;;;31.30;97.70;;;;;;4161288;28;20068;-72
2022/08/25 07:42:01;;;;;;;4.82;2.35;;;31.40;97.90;;;;;;4161184;28;20049;-72
2022/08/25 07:44:06;;;;;;;6.40;2.72;;;31.30;98.50;;;;;;4161273;28;20595;-72
2022/08/25 07:46:12;;;;;;;4.35;2.30;;;31.20;98.40;;;;;;4161427;28;20120;-72
2022/08/25 07:48:19;;;;;;;3.97;2.60;;;31.10;98.60;;;;;;4142409;28;20074;-73
2022/08/25 07:50:26;;;;;;;4.20;2.30;;;31.10;98.30;;;;;;4161371;28;20089;-73
2022/08/25 07:52:32;;;;;;;3.42;2.40;;;31.10;98.60;;;;;;4160931;28;20044;-74
2022/08/25 07:54:41;;;;;;;6.13;2.22;;;31.20;99.00;;;;;;4142166;28;20049;-72
2022/08/25 07:57:03;;;;;;;6.25;3.60;;;31.10;99.20;;;;;;4161230;28;20458;-72
2022/08/25 07:59:10;;;;;;;5.22;3.45;;;31.10;99.50;;;;;;4161304;28;20052;-72
2022/08/25 08:01:20;;;;;;;40.30;31.23;;;31.10;99.20;;;;;;4161247;28;20053;-72
2022/08/25 08:03:26;;;;;;;72.78;54.78;;;31.10;99.30;;;;;;4161389;28;20060;-72
2022/08/25 08:05:55;;;;;;;50.88;35.25;;;31.00;99.10;;;;;;4161178;28;20041;-72
2022/08/25 08:08:02;;;;;;;73.22;44.25;;;31.10;98.50;;;;;;4161019;28;20045;-71
2022/08/25 08:10:08;;;;;;;21.73;14.65;;;31.10;98.30;;;;;;4175734;28;20049;-72
2022/08/25 08:12:34;;;;;;;8.88;5.93;;;31.10;98.40;;;;;;4160895;28;20050;-72
2022/08/25 08:14:41;;;;;;;16.55;10.93;;;31.10;98.60;;;;;;4161033;28;20049;-72
2022/08/25 08:16:48;;;;;;;9.98;6.03;;;31.10;98.40;;;;;;4176253;28;20048;-72
2022/08/25 08:18:53;;;;;;;11.68;7.25;;;31.20;98.10;;;;;;4176145;28;20363;-71
2022/08/25 08:20:59;;;;;;;9.55;5.82;;;31.30;98.50;;;;;;4160792;28;20037;-71
2022/08/25 08:23:04;;;;;;;5.38;3.85;;;31.30;98.70;;;;;;4160908;28;20050;-71
2022/08/25 08:25:11;;;;;;;6.28;3.22;;;31.30;98.40;;;;;;4160738;28;20053;-72
2022/08/25 08:27:23;;;;;;;9.17;2.80;;;31.40;98.30;;;;;;4142279;28;20057;-72
2022/08/25 08:29:40;;;;;;;4.75;2.55;;;31.30;98.60;;;;;;4158410;28;20049;-72
2022/08/25 08:31:47;;;;;;;5.18;2.50;;;31.30;99.10;;;;;;4160977;28;20708;-72
2022/08/25 08:33:55;;;;;;;4.78;2.00;;;31.30;99.10;;;;;;4164034;28;20077;-71
2022/08/25 08:36:01;;;;;;;4.28;1.75;;;31.10;98.40;;;;;;4163873;28;20045;-72
2022/08/25 08:38:11;;;;;;;6.25;2.00;;;31.00;98.70;;;;;;4163887;28;20049;-71
2022/08/25 08:40:24;;;;;;;5.82;1.83;;;31.00;98.40;;;;;;4128548;28;20061;-71
2022/08/25 08:42:51;;;;;;;4.20;1.40;;;30.90;98.50;;;;;;4163980;28;20060;-71
2022/08/25 08:45:27;;;;;;;2.65;1.40;;;30.90;99.00;;;;;;4163751;28;20042;-71
2022/08/25 08:48:22;;;;;;;7.55;2.20;;;30.80;98.70;;;;;;4162673;28;20045;-72
2022/08/25 08:50:48;;;;;;;7.35;1.60;;;30.80;98.60;;;;;;4163595;28;20106;-70
2022/08/25 08:53:21;;;;;;;5.70;1.63;;;30.80;98.60;;;;;;4163467;28;20045;-71
2022/08/25 08:55:40;;;;;;;9.98;1.67;;;30.80;98.90;;;;;;4163356;28;20057;-72
2022/08/25 08:57:47;;;;;;;4.13;1.70;;;30.80;99.00;;;;;;4163748;28;20053;-71
2022/08/25 08:59:59;;;;;;;2.75;1.60;;;30.80;99.00;;;;;;4163757;28;20049;-70
2022/08/25 09:02:06;;;;;;;4.18;1.40;;;30.80;99.20;;;;;;4162564;28;20542;-71
2022/08/25 09:04:26;;;;;;;5.93;1.80;;;30.80;99.20;;;;;;4171859;28;20699;-71
2022/08/25 09:06:44;;;;;;;6.32;1.58;;;30.90;99.40;;;;;;4161658;28;20156;-70
2022/08/25 09:08:56;;;;;;;10.82;1.75;;;30.80;99.50;;;;;;4161576;28;20043;-72
2022/08/25 09:11:24;;;;;;;3.42;1.30;;;30.80;99.60;;;;;;4160321;28;20053;-71
2022/08/25 09:13:44;;;;;;;2.08;1.40;;;30.70;99.70;;;;;;4162564;28;20160;-71
2022/08/25 09:19:02;;;;;;;6.72;2.05;;;30.60;99.90;;;;;;4162393;28;20046;-72
2022/08/25 09:21:33;;;;;;;4.70;1.65;;;30.60;99.90;;;;;;4163180;28;20057;-71
2022/08/25 09:24:19;;;;;;;2.22;1.60;;;30.60;99.60;;;;;;4163309;28;20097;-70
2022/08/25 09:26:35;;;;;;;4.32;2.15;;;30.60;99.90;;;;;;4163020;28;20448;-72
2022/08/25 09:28:49;;;;;;;3.15;1.55;;;30.60;99.90;;;;;;4163124;28;20423;-72
2022/08/25 09:31:01;;;;;;;2.63;1.35;;;30.60;99.90;;;;;;4161883;28;20100;-71
2022/08/25 09:33:06;;;;;;;3.35;1.27;;;30.50;99.60;;;;;;4162033;28;20053;-70
2022/08/25 09:35:19;;;;;;;3.20;1.63;;;30.40;99.70;;;;;;4163069;28;20050;-71
2022/08/25 09:37:27;;;;;;;1.55;1.30;;;30.40;99.90;;;;;;4146793;28;20421;-69
2022/08/25 09:39:33;;;;;;;3.33;1.50;;;30.40;99.90;;;;;;4156439;28;20049;-70
2022/08/25 09:41:57;;;;;;;3.65;1.83;;;30.40;99.90;;;;;;4160136;28;20049;-71
2022/08/25 09:44:03;;;;;;;4.43;2.75;;;30.30;99.90;;;;;;4141405;28;20452;-71
2022/08/25 09:46:23;;;;;;;5.43;3.20;;;30.40;99.90;;;;;;4161535;28;20049;-71
2022/08/25 09:48:43;;;;;;;4.72;2.75;;;30.40;99.90;;;;;;4162397;28;20527;-69
2022/08/25 09:51:00;;;;;;;4.78;2.70;;;30.40;99.90;;;;;;4159907;28;20052;-70
2022/08/25 09:53:13;;;;;;;6.10;1.88;;;30.40;99.90;;;;;;4144547;28;20042;-71
2022/08/25 09:55:30;;;;;;;5.30;2.38;;;30.40;99.90;;;;;;4156410;28;20041;-71
2022/08/25 09:57:57;;;;;;;7.85;2.03;;;30.40;99.90;;;;;;4160538;28;20435;-72
2022/08/25 10:00:23;;;;;;;7.57;2.40;;;30.40;99.90;;;;;;4160335;28;20209;-69
2022/08/25 10:02:28;;;;;;;3.92;2.22;;;30.30;99.90;;;;;;4159880;28;20053;-70
2022/08/25 10:04:35;;;;;;;6.57;2.60;;;30.30;99.90;;;;;;4160953;28;20485;-70
2022/08/25 10:06:44;;;;;;;6.38;2.30;;;30.30;99.90;;;;;;4161921;28;20514;-68
2022/08/25 10:08:58;;;;;;;5.07;2.92;;;30.30;99.90;;;;;;4162606;28;20057;-69
2022/08/25 10:11:14;;;;;;;13.38;3.88;;;30.20;99.90;;;;;;4174324;28;20087;-71
2022/08/25 10:13:22;;;;;;;10.13;3.58;;;30.20;99.90;;;;;;4160256;28;20068;-70
2022/08/25 10:15:34;;;;;;;7.28;3.50;;;30.20;99.90;;;;;;4161043;28;20045;-69
2022/08/25 10:17:39;;;;;;;8.27;4.07;;;30.20;99.90;;;;;;4160517;28;20103;-70
2022/08/25 10:19:43;;;;;;;7.45;4.50;;;30.20;99.90;;;;;;4159039;28;20045;-69
2022/08/25 10:22:10;;;;;;;8.98;4.63;;;30.20;99.90;;;;;;4159266;28;20114;-69
2022/08/25 10:24:14;;;;;;;10.07;5.45;;;30.20;99.90;;;;;;4162030;28;20046;-70
2022/08/25 10:26:28;;;;;;;7.38;5.00;;;30.10;99.90;;;;;;4161479;28;20049;-69
2022/08/25 10:29:00;;;;;;;7.68;4.95;;;30.10;99.90;;;;;;4161206;28;20080;-69
2022/08/25 10:31:34;;;;;;;6.75;4.28;;;30.10;99.90;;;;;;4158918;28;20033;-70
2022/08/25 10:34:08;;;;;;;3.75;3.28;;;30.10;99.90;;;;;;4158654;28;20083;-70
2022/08/25 10:36:35;;;;;;;6.63;2.90;;;29.90;99.90;;;;;;4159352;28;20053;-70
2022/08/25 10:38:43;;;;;;;6.60;3.20;;;29.90;99.90;;;;;;4160729;28;20053;-70
2022/08/25 10:41:01;;;;;;;4.80;2.47;;;29.90;99.90;;;;;;4173465;28;20041;-70
2022/08/25 10:43:47;;;;;;;4.30;2.85;;;29.90;99.90;;;;;;4156578;28;20076;-70
2022/08/25 10:46:14;;;;;;;4.63;2.58;;;29.80;99.90;;;;;;4156803;28;20049;-70
2022/08/25 10:48:53;;;;;;;4.32;2.60;;;29.80;99.90;;;;;;4159526;28;20064;-70
2022/08/25 10:51:22;;;;;;;3.95;2.58;;;29.70;99.90;;;;;;4151690;28;20294;-70
2022/08/25 10:53:50;;;;;;;5.05;2.47;;;29.70;99.90;;;;;;4160648;28;20511;-69
2022/08/25 10:56:12;;;;;;;4.95;2.67;;;29.70;99.90;;;;;;4158063;28;20057;-70
2022/08/25 10:58:55;;;;;;;6.07;2.33;;;29.60;99.90;;;;;;4156219;28;20054;-69
2022/08/25 11:01:26;;;;;;;3.97;2.95;;;29.60;99.90;;;;;;4155526;28;20444;-69
2022/08/25 11:03:52;;;;;;;4.85;2.90;;;29.60;99.90;;;;;;4158512;28;20068;-69
2022/08/25 11:06:01;;;;;;;7.43;3.30;;;29.50;99.90;;;;;;4159539;28;20052;-69
2022/08/25 11:08:24;;;;;;;5.10;3.03;;;29.50;99.90;;;;;;4160466;28;20300;-69
2022/08/25 11:10:47;;;;;;;4.35;3.08;;;29.50;99.90;;;;;;4156756;28;20109;-68
2022/08/25 11:12:58;;;;;;;4.72;3.03;;;29.50;99.90;;;;;;4158796;28;20059;-69
2022/08/25 11:15:17;;;;;;;7.18;3.58;;;29.50;99.90;;;;;;4160770;28;20108;-69
2022/08/25 11:17:25;;;;;;;5.40;3.47;;;29.40;99.90;;;;;;4159937;28;20464;-69
2022/08/25 11:19:49;;;;;;;3.95;3.35;;;29.40;99.90;;;;;;4157244;28;20060;-69
2022/08/25 11:22:11;;;;;;;4.68;3.72;;;29.30;99.90;;;;;;4158785;28;20107;-68
2022/08/25 11:24:49;;;;;;;5.38;3.75;;;29.30;99.90;;;;;;4157592;28;20076;-67
2022/08/25 11:26:55;;;;;;;4.38;3.65;;;29.20;99.90;;;;;;4158154;28;20033;-67
2022/08/25 11:29:09;;;;;;;5.80;3.80;;;29.30;99.90;;;;;;4160702;28;20046;-68